sensor_id;sensor_type;location;lat;lon;timestamp;temperature;humidity
46494;DHT22;53214;49.314;6.280;2024-03-06T00:02:08;2.10;99.90
46494;DHT22;53214;49.314;6.280;2024-03-06T00:04:35;2.10;99.90
46494;DHT22;53214;49.314;6.280;2024-03-06T00:07:02;2.10;99.90
46494;DHT22;53214;49.314;6.280;2024-03-06T00:09:29;2.00;99.90
46494;DHT22;53214;49.314;6.280;2024-03-06T00:11:57;1.80;99.90
46494;DHT22;53214;49.314;6.280;2024-03-06T00:14:24;1.80;99.90
46494;DHT22;53214;49.314;6.280;2024-03-06T00:16:51;1.70;99.90
46494;DHT22;53214;49.314;6.280;2024-03-06T00:19:19;1.80;99.90
46494;DHT22;53214;49.314;6.280;2024-03-06T00:21:46;1.80;99.90
46494;DHT22;53214;49.314;6.280;2024-03-06T00:24:16;1.90;99.90
46494;DHT22;53214;49.314;6.280;2024-03-06T00:26:44;1.90;99.90
46494;DHT22;53214;49.314;6.280;2024-03-06T00:29:11;1.80;99.90
46494;DHT22;53214;49.314;6.280;2024-03-06T00:31:43;1.70;99.90
46494;DHT22;53214;49.314;6.280;2024-03-06T00:34:10;1.70;99.90
46494;DHT22;53214;49.314;6.280;2024-03-06T00:36:38;1.70;99.90
46494;DHT22;53214;49.314;6.280;2024-03-06T00:39:04;1.80;99.90
46494;DHT22;53214;49.314;6.280;2024-03-06T00:41:31;1.70;99.90
46494;DHT22;53214;49.314;6.280;2024-03-06T00:43:58;1.60;99.90
46494;DHT22;53214;49.314;6.280;2024-03-06T00:46:25;1.60;99.90
46494;DHT22;53214;49.314;6.280;2024-03-06T00:48:52;1.60;99.90
46494;DHT22;53214;49.314;6.280;2024-03-06T00:51:18;1.50;99.90
46494;DHT22;53214;49.314;6.280;2024-03-06T00:53:55;1.50;99.90
46494;DHT22;53214;49.314;6.280;2024-03-06T00:56:22;1.50;99.90
46494;DHT22;53214;49.314;6.280;2024-03-06T00:58:49;1.40;99.90
46494;DHT22;53214;49.314;6.280;2024-03-06T01:01:16;1.40;99.90
46494;DHT22;53214;49.314;6.280;2024-03-06T01:03:43;1.40;99.90
46494;DHT22;53214;49.314;6.280;2024-03-06T01:06:10;1.30;99.90
46494;DHT22;53214;49.314;6.280;2024-03-06T01:08:37;1.20;99.90
46494;DHT22;53214;49.314;6.280;2024-03-06T01:11:04;1.20;99.90
46494;DHT22;53214;49.314;6.280;2024-03-06T01:13:31;1.20;99.90
46494;DHT22;53214;49.314;6.280;2024-03-06T01:15:58;1.20;99.90
46494;DHT22;53214;49.314;6.280;2024-03-06T01:18:24;1.20;99.90
46494;DHT22;53214;49.314;6.280;2024-03-06T01:20:51;1.20;99.90
46494;DHT22;53214;49.314;6.280;2024-03-06T01:23:18;1.20;99.90
46494;DHT22;53214;49.314;6.280;2024-03-06T01:25:45;1.20;99.90
46494;DHT22;53214;49.314;6.280;2024-03-06T01:28:12;1.20;99.90
46494;DHT22;53214;49.314;6.280;2024-03-06T01:30:39;1.30;99.90
46494;DHT22;53214;49.314;6.280;2024-03-06T01:33:06;1.30;99.90
46494;DHT22;53214;49.314;6.280;2024-03-06T01:35:33;1.20;99.90
46494;DHT22;53214;49.314;6.280;2024-03-06T01:37:59;1.10;99.90
46494;DHT22;53214;49.314;6.280;2024-03-06T01:40:28;1.00;99.90
46494;DHT22;53214;49.314;6.280;2024-03-06T01:42:56;1.00;99.90
46494;DHT22;53214;49.314;6.280;2024-03-06T01:45:23;1.00;99.90
46494;DHT22;53214;49.314;6.280;2024-03-06T01:47:49;0.90;99.90
46494;DHT22;53214;49.314;6.280;2024-03-06T01:50:17;0.90;99.90
46494;DHT22;53214;49.314;6.280;2024-03-06T01:52:46;0.90;99.90
46494;DHT22;53214;49.314;6.280;2024-03-06T01:55:13;0.90;99.90
46494;DHT22;53214;49.314;6.280;2024-03-06T01:57:41;1.10;99.90
46494;DHT22;53214;49.314;6.280;2024-03-06T02:00:09;0.90;99.90
46494;DHT22;53214;49.314;6.280;2024-03-06T02:02:42;0.90;99.90
46494;DHT22;53214;49.314;6.280;2024-03-06T02:05:09;0.80;99.90
46494;DHT22;53214;49.314;6.280;2024-03-06T02:07:38;0.70;99.90
46494;DHT22;53214;49.314;6.280;2024-03-06T02:10:08;0.70;99.90
46494;DHT22;53214;49.314;6.280;2024-03-06T02:12:37;0.60;99.90
46494;DHT22;53214;49.314;6.280;2024-03-06T02:15:04;0.60;99.90
46494;DHT22;53214;49.314;6.280;2024-03-06T02:17:31;0.60;99.90
46494;DHT22;53214;49.314;6.280;2024-03-06T02:19:58;0.60;99.90
46494;DHT22;53214;49.314;6.280;2024-03-06T02:22:25;0.70;99.90
46494;DHT22;53214;49.314;6.280;2024-03-06T02:24:52;0.60;99.90
46494;DHT22;53214;49.314;6.280;2024-03-06T02:27:18;0.60;99.90
46494;DHT22;53214;49.314;6.280;2024-03-06T02:29:45;0.70;99.90
46494;DHT22;53214;49.314;6.280;2024-03-06T02:32:12;0.70;99.90
46494;DHT22;53214;49.314;6.280;2024-03-06T02:34:40;0.60;99.90
46494;DHT22;53214;49.314;6.280;2024-03-06T02:37:07;0.50;99.90
46494;DHT22;53214;49.314;6.280;2024-03-06T02:39:34;0.50;99.90
46494;DHT22;53214;49.314;6.280;2024-03-06T02:42:01;0.50;99.90
46494;DHT22;53214;49.314;6.280;2024-03-06T02:44:27;0.50;99.90
46494;DHT22;53214;49.314;6.280;2024-03-06T02:46:54;0.40;99.90
46494;DHT22;53214;49.314;6.280;2024-03-06T02:49:21;0.50;99.90
46494;DHT22;53214;49.314;6.280;2024-03-06T02:51:48;0.60;99.90
46494;DHT22;53214;49.314;6.280;2024-03-06T02:54:15;0.70;99.90
46494;DHT22;53214;49.314;6.280;2024-03-06T02:56:42;0.60;99.90
46494;DHT22;53214;49.314;6.280;2024-03-06T02:59:08;0.40;99.90
46494;DHT22;53214;49.314;6.280;2024-03-06T03:01:35;0.40;99.90
46494;DHT22;53214;49.314;6.280;2024-03-06T03:04:02;0.30;99.90
46494;DHT22;53214;49.314;6.280;2024-03-06T03:06:29;0.20;99.90
46494;DHT22;53214;49.314;6.280;2024-03-06T03:08:56;0.10;99.90
46494;DHT22;53214;49.314;6.280;2024-03-06T03:11:23;0.10;99.90
46494;DHT22;53214;49.314;6.280;2024-03-06T03:13:49;0.10;99.90
46494;DHT22;53214;49.314;6.280;2024-03-06T03:16:17;0.00;99.90
46494;DHT22;53214;49.314;6.280;2024-03-06T03:18:45;0.00;99.90
46494;DHT22;53214;49.314;6.280;2024-03-06T03:21:12;0.00;99.90
46494;DHT22;53214;49.314;6.280;2024-03-06T03:23:40;0.00;99.90
46494;DHT22;53214;49.314;6.280;2024-03-06T03:26:08;-0.10;99.90
46494;DHT22;53214;49.314;6.280;2024-03-06T03:28:39;0.00;99.90
46494;DHT22;53214;49.314;6.280;2024-03-06T03:31:09;0.00;99.90
46494;DHT22;53214;49.314;6.280;2024-03-06T03:33:40;-0.10;99.90
46494;DHT22;53214;49.314;6.280;2024-03-06T03:36:07;-0.10;99.90
46494;DHT22;53214;49.314;6.280;2024-03-06T03:38:38;0.00;99.90
46494;DHT22;53214;49.314;6.280;2024-03-06T03:41:12;0.00;99.90
46494;DHT22;53214;49.314;6.280;2024-03-06T03:43:40;-0.10;99.90
46494;DHT22;53214;49.314;6.280;2024-03-06T03:46:07;-0.10;99.90
46494;DHT22;53214;49.314;6.280;2024-03-06T03:48:34;-0.10;99.90
46494;DHT22;53214;49.314;6.280;2024-03-06T03:51:05;-0.20;99.90
46494;DHT22;53214;49.314;6.280;2024-03-06T03:53:33;-0.20;99.90
46494;DHT22;53214;49.314;6.280;2024-03-06T03:56:00;-0.30;99.90
46494;DHT22;53214;49.314;6.280;2024-03-06T03:58:28;-0.30;99.90
46494;DHT22;53214;49.314;6.280;2024-03-06T04:00:55;-0.20;99.90
46494;DHT22;53214;49.314;6.280;2024-03-06T04:03:22;-0.20;99.90
46494;DHT22;53214;49.314;6.280;2024-03-06T04:05:51;-0.20;99.90
46494;DHT22;53214;49.314;6.280;2024-03-06T04:08:18;-0.10;99.90
46494;DHT22;53214;49.314;6.280;2024-03-06T04:10:45;-0.10;99.90
46494;DHT22;53214;49.314;6.280;2024-03-06T04:13:15;-0.20;99.90
46494;DHT22;53214;49.314;6.280;2024-03-06T04:15:43;-0.20;99.90
46494;DHT22;53214;49.314;6.280;2024-03-06T04:18:10;-0.30;99.90
46494;DHT22;53214;49.314;6.280;2024-03-06T04:20:36;-0.20;99.90
46494;DHT22;53214;49.314;6.280;2024-03-06T04:23:03;-0.20;99.90
46494;DHT22;53214;49.314;6.280;2024-03-06T04:25:30;-0.20;99.90
46494;DHT22;53214;49.314;6.280;2024-03-06T04:27:57;-0.20;99.90
46494;DHT22;53214;49.314;6.280;2024-03-06T04:30:24;-0.20;99.90
46494;DHT22;53214;49.314;6.280;2024-03-06T04:32:51;-0.20;99.90
46494;DHT22;53214;49.314;6.280;2024-03-06T04:35:18;-0.20;99.90
46494;DHT22;53214;49.314;6.280;2024-03-06T04:37:45;-0.20;99.90
46494;DHT22;53214;49.314;6.280;2024-03-06T04:40:12;-0.10;99.90
46494;DHT22;53214;49.314;6.280;2024-03-06T04:42:41;0.00;99.90
46494;DHT22;53214;49.314;6.280;2024-03-06T04:45:11;0.00;99.90
46494;DHT22;53214;49.314;6.280;2024-03-06T04:47:39;0.10;99.90
46494;DHT22;53214;49.314;6.280;2024-03-06T04:50:10;0.00;99.90
46494;DHT22;53214;49.314;6.280;2024-03-06T04:52:40;-0.10;99.90
46494;DHT22;53214;49.314;6.280;2024-03-06T04:55:08;-0.10;99.90
46494;DHT22;53214;49.314;6.280;2024-03-06T04:57:37;-0.20;99.90
46494;DHT22;53214;49.314;6.280;2024-03-06T05:00:05;-0.30;99.90
46494;DHT22;53214;49.314;6.280;2024-03-06T05:02:33;-0.40;99.90
46494;DHT22;53214;49.314;6.280;2024-03-06T05:05:21;-0.50;99.90
46494;DHT22;53214;49.314;6.280;2024-03-06T05:08:06;-0.50;99.90
46494;DHT22;53214;49.314;6.280;2024-03-06T05:10:51;-0.50;99.90
46494;DHT22;53214;49.314;6.280;2024-03-06T05:13:35;-0.50;99.90
46494;DHT22;53214;49.314;6.280;2024-03-06T05:16:19;-0.50;99.90
46494;DHT22;53214;49.314;6.280;2024-03-06T05:19:06;-0.60;99.90
46494;DHT22;53214;49.314;6.280;2024-03-06T05:21:50;-0.70;99.90
46494;DHT22;53214;49.314;6.280;2024-03-06T05:24:34;-0.70;99.90
46494;DHT22;53214;49.314;6.280;2024-03-06T05:27:18;-0.70;99.90
46494;DHT22;53214;49.314;6.280;2024-03-06T05:30:03;-0.70;99.90
46494;DHT22;53214;49.314;6.280;2024-03-06T05:32:49;-0.70;99.90
46494;DHT22;53214;49.314;6.280;2024-03-06T05:35:33;-0.70;99.90
46494;DHT22;53214;49.314;6.280;2024-03-06T05:38:17;-0.70;99.90
46494;DHT22;53214;49.314;6.280;2024-03-06T05:41:02;-0.70;99.90
46494;DHT22;53214;49.314;6.280;2024-03-06T05:43:46;-0.80;99.90
46494;DHT22;53214;49.314;6.280;2024-03-06T05:46:30;-0.80;99.90
46494;DHT22;53214;49.314;6.280;2024-03-06T05:49:14;-0.80;99.90
46494;DHT22;53214;49.314;6.280;2024-03-06T05:51:59;-0.80;99.90
46494;DHT22;53214;49.314;6.280;2024-03-06T05:54:43;-0.80;99.90
46494;DHT22;53214;49.314;6.280;2024-03-06T05:57:27;-0.80;99.90
46494;DHT22;53214;49.314;6.280;2024-03-06T06:00:11;-0.90;99.90
46494;DHT22;53214;49.314;6.280;2024-03-06T06:02:38;-0.90;99.90
46494;DHT22;53214;49.314;6.280;2024-03-06T06:05:06;-0.90;99.90
46494;DHT22;53214;49.314;6.280;2024-03-06T06:07:49;-0.90;99.90
46494;DHT22;53214;49.314;6.280;2024-03-06T06:10:17;-0.90;99.90
46494;DHT22;53214;49.314;6.280;2024-03-06T06:12:48;-0.80;99.90
46494;DHT22;53214;49.314;6.280;2024-03-06T06:15:15;-0.80;99.90
46494;DHT22;53214;49.314;6.280;2024-03-06T06:17:42;-0.80;99.90
46494;DHT22;53214;49.314;6.280;2024-03-06T06:20:12;-0.70;99.90
46494;DHT22;53214;49.314;6.280;2024-03-06T06:22:43;-0.80;99.90
46494;DHT22;53214;49.314;6.280;2024-03-06T06:25:10;-0.80;99.90
46494;DHT22;53214;49.314;6.280;2024-03-06T06:27:37;-0.80;99.90
46494;DHT22;53214;49.314;6.280;2024-03-06T06:30:05;-0.80;99.90
46494;DHT22;53214;49.314;6.280;2024-03-06T06:32:34;-0.80;99.90
46494;DHT22;53214;49.314;6.280;2024-03-06T06:35:01;-0.90;99.90
46494;DHT22;53214;49.314;6.280;2024-03-06T06:37:28;-0.90;99.90
46494;DHT22;53214;49.314;6.280;2024-03-06T06:39:55;-1.00;99.90
46494;DHT22;53214;49.314;6.280;2024-03-06T06:42:22;-1.00;99.90
46494;DHT22;53214;49.314;6.280;2024-03-06T06:44:48;-1.00;99.90
46494;DHT22;53214;49.314;6.280;2024-03-06T06:47:16;-1.00;99.90
46494;DHT22;53214;49.314;6.280;2024-03-06T06:49:42;-1.00;99.90
46494;DHT22;53214;49.314;6.280;2024-03-06T06:52:09;-1.00;99.90
46494;DHT22;53214;49.314;6.280;2024-03-06T06:54:36;-1.00;99.90
46494;DHT22;53214;49.314;6.280;2024-03-06T06:57:03;-1.00;99.90
46494;DHT22;53214;49.314;6.280;2024-03-06T06:59:30;-0.90;99.90
46494;DHT22;53214;49.314;6.280;2024-03-06T07:01:57;-0.80;99.90
46494;DHT22;53214;49.314;6.280;2024-03-06T07:04:24;-0.70;99.90
46494;DHT22;53214;49.314;6.280;2024-03-06T07:06:51;-0.70;99.90
46494;DHT22;53214;49.314;6.280;2024-03-06T07:09:19;-0.70;99.90
46494;DHT22;53214;49.314;6.280;2024-03-06T07:11:46;-0.60;99.90
46494;DHT22;53214;49.314;6.280;2024-03-06T07:14:13;-0.60;99.90
46494;DHT22;53214;49.314;6.280;2024-03-06T07:16:44;-0.50;99.90
46494;DHT22;53214;49.314;6.280;2024-03-06T07:19:11;-0.50;99.90
46494;DHT22;53214;49.314;6.280;2024-03-06T07:21:39;-0.40;99.90
46494;DHT22;53214;49.314;6.280;2024-03-06T07:24:06;-0.20;99.90
46494;DHT22;53214;49.314;6.280;2024-03-06T07:26:33;-0.10;99.90
46494;DHT22;53214;49.314;6.280;2024-03-06T07:29:01;0.00;99.90
46494;DHT22;53214;49.314;6.280;2024-03-06T07:31:28;0.00;99.90
46494;DHT22;53214;49.314;6.280;2024-03-06T07:33:55;0.10;99.90
46494;DHT22;53214;49.314;6.280;2024-03-06T07:36:22;0.20;99.90
46494;DHT22;53214;49.314;6.280;2024-03-06T07:38:49;0.30;99.90
46494;DHT22;53214;49.314;6.280;2024-03-06T07:41:16;0.40;99.90
46494;DHT22;53214;49.314;6.280;2024-03-06T07:43:43;0.50;99.90
46494;DHT22;53214;49.314;6.280;2024-03-06T07:46:10;0.50;99.90
46494;DHT22;53214;49.314;6.280;2024-03-06T07:48:38;0.50;99.90
46494;DHT22;53214;49.314;6.280;2024-03-06T07:51:05;0.60;99.90
46494;DHT22;53214;49.314;6.280;2024-03-06T07:53:33;0.70;99.90
46494;DHT22;53214;49.314;6.280;2024-03-06T07:56:02;0.70;99.90
46494;DHT22;53214;49.314;6.280;2024-03-06T07:58:29;0.80;99.90
46494;DHT22;53214;49.314;6.280;2024-03-06T08:00:56;0.80;99.90
46494;DHT22;53214;49.314;6.280;2024-03-06T08:03:23;0.80;99.90
46494;DHT22;53214;49.314;6.280;2024-03-06T08:05:52;0.90;99.90
46494;DHT22;53214;49.314;6.280;2024-03-06T08:08:20;0.90;99.90
46494;DHT22;53214;49.314;6.280;2024-03-06T08:10:48;0.90;99.90
46494;DHT22;53214;49.314;6.280;2024-03-06T08:13:15;1.00;99.90
46494;DHT22;53214;49.314;6.280;2024-03-06T08:15:42;1.00;99.90
46494;DHT22;53214;49.314;6.280;2024-03-06T08:18:12;1.10;99.90
46494;DHT22;53214;49.314;6.280;2024-03-06T08:20:40;1.20;99.90
46494;DHT22;53214;49.314;6.280;2024-03-06T08:23:08;1.20;99.90
46494;DHT22;53214;49.314;6.280;2024-03-06T08:25:37;1.30;99.90
46494;DHT22;53214;49.314;6.280;2024-03-06T08:28:04;1.30;99.90
46494;DHT22;53214;49.314;6.280;2024-03-06T08:30:32;1.50;99.90
46494;DHT22;53214;49.314;6.280;2024-03-06T08:32:59;1.60;99.90
46494;DHT22;53214;49.314;6.280;2024-03-06T08:35:27;1.80;99.90
46494;DHT22;53214;49.314;6.280;2024-03-06T08:37:54;2.10;99.90
46494;DHT22;53214;49.314;6.280;2024-03-06T08:40:21;2.40;99.90
46494;DHT22;53214;49.314;6.280;2024-03-06T08:42:50;2.70;99.90
46494;DHT22;53214;49.314;6.280;2024-03-06T08:45:17;2.80;99.90
46494;DHT22;53214;49.314;6.280;2024-03-06T08:47:45;2.90;99.90
46494;DHT22;53214;49.314;6.280;2024-03-06T08:50:12;2.90;99.90
46494;DHT22;53214;49.314;6.280;2024-03-06T08:52:40;3.00;99.90
46494;DHT22;53214;49.314;6.280;2024-03-06T08:55:08;2.90;99.90
46494;DHT22;53214;49.314;6.280;2024-03-06T08:57:35;3.10;99.90
46494;DHT22;53214;49.314;6.280;2024-03-06T09:00:03;3.20;99.90
46494;DHT22;53214;49.314;6.280;2024-03-06T09:02:31;3.20;99.90
46494;DHT22;53214;49.314;6.280;2024-03-06T09:04:57;3.20;99.90
46494;DHT22;53214;49.314;6.280;2024-03-06T09:07:24;3.20;99.90
46494;DHT22;53214;49.314;6.280;2024-03-06T09:09:51;3.20;99.90
46494;DHT22;53214;49.314;6.280;2024-03-06T09:12:18;3.30;99.90
46494;DHT22;53214;49.314;6.280;2024-03-06T09:14:45;3.30;99.90
46494;DHT22;53214;49.314;6.280;2024-03-06T09:17:12;3.30;99.90
46494;DHT22;53214;49.314;6.280;2024-03-06T09:19:42;3.40;99.90
46494;DHT22;53214;49.314;6.280;2024-03-06T09:22:12;3.50;99.90
46494;DHT22;53214;49.314;6.280;2024-03-06T09:24:39;3.60;99.90
46494;DHT22;53214;49.314;6.280;2024-03-06T09:27:05;3.70;99.90
46494;DHT22;53214;49.314;6.280;2024-03-06T09:29:32;3.80;99.90
46494;DHT22;53214;49.314;6.280;2024-03-06T09:31:59;3.80;99.90
46494;DHT22;53214;49.314;6.280;2024-03-06T09:34:26;3.80;99.90
46494;DHT22;53214;49.314;6.280;2024-03-06T09:36:53;3.90;99.90
46494;DHT22;53214;49.314;6.280;2024-03-06T09:39:20;3.90;99.90
46494;DHT22;53214;49.314;6.280;2024-03-06T09:41:47;4.10;99.90
46494;DHT22;53214;49.314;6.280;2024-03-06T09:44:14;4.20;99.90
46494;DHT22;53214;49.314;6.280;2024-03-06T09:46:46;4.20;99.90
46494;DHT22;53214;49.314;6.280;2024-03-06T09:49:19;4.20;99.90
46494;DHT22;53214;49.314;6.280;2024-03-06T09:51:48;4.40;99.90
46494;DHT22;53214;49.314;6.280;2024-03-06T09:54:17;4.40;99.90
46494;DHT22;53214;49.314;6.280;2024-03-06T09:56:49;4.40;99.90
46494;DHT22;53214;49.314;6.280;2024-03-06T09:59:16;4.50;99.90
46494;DHT22;53214;49.314;6.280;2024-03-06T10:01:50;4.60;99.90
46494;DHT22;53214;49.314;6.280;2024-03-06T10:04:21;4.70;99.90
46494;DHT22;53214;49.314;6.280;2024-03-06T10:06:49;4.90;99.90
46494;DHT22;53214;49.314;6.280;2024-03-06T10:09:19;5.20;99.90
46494;DHT22;53214;49.314;6.280;2024-03-06T10:11:46;5.60;99.90
46494;DHT22;53214;49.314;6.280;2024-03-06T10:14:13;5.80;99.90
46494;DHT22;53214;49.314;6.280;2024-03-06T10:16:53;6.00;99.90
46494;DHT22;53214;49.314;6.280;2024-03-06T10:19:22;6.00;99.90
46494;DHT22;53214;49.314;6.280;2024-03-06T10:21:50;6.10;99.90
46494;DHT22;53214;49.314;6.280;2024-03-06T10:24:19;6.20;99.90
46494;DHT22;53214;49.314;6.280;2024-03-06T10:26:47;6.20;99.90
46494;DHT22;53214;49.314;6.280;2024-03-06T10:29:18;6.30;99.90
46494;DHT22;53214;49.314;6.280;2024-03-06T10:31:53;6.30;99.90
46494;DHT22;53214;49.314;6.280;2024-03-06T10:34:25;6.50;99.90
46494;DHT22;53214;49.314;6.280;2024-03-06T10:39:20;6.30;99.90
46494;DHT22;53214;49.314;6.280;2024-03-06T10:41:55;6.40;99.90
46494;DHT22;53214;49.314;6.280;2024-03-06T10:44:26;6.30;99.90
46494;DHT22;53214;49.314;6.280;2024-03-06T10:47:02;6.60;99.90
46494;DHT22;53214;49.314;6.280;2024-03-06T10:49:31;6.80;99.90
46494;DHT22;53214;49.314;6.280;2024-03-06T10:52:04;7.00;99.90
46494;DHT22;53214;49.314;6.280;2024-03-06T10:54:35;7.30;99.90
46494;DHT22;53214;49.314;6.280;2024-03-06T10:57:04;7.50;99.90
46494;DHT22;53214;49.314;6.280;2024-03-06T10:59:31;7.50;99.90
46494;DHT22;53214;49.314;6.280;2024-03-06T11:01:59;7.60;99.90
46494;DHT22;53214;49.314;6.280;2024-03-06T11:04:29;7.70;99.90
46494;DHT22;53214;49.314;6.280;2024-03-06T11:06:57;7.60;99.90
46494;DHT22;53214;49.314;6.280;2024-03-06T11:09:26;7.60;99.90
46494;DHT22;53214;49.314;6.280;2024-03-06T11:11:54;7.60;99.90
46494;DHT22;53214;49.314;6.280;2024-03-06T11:14:22;7.50;99.90
46494;DHT22;53214;49.314;6.280;2024-03-06T11:17:02;7.50;99.90
46494;DHT22;53214;49.314;6.280;2024-03-06T11:19:31;7.70;99.90
46494;DHT22;53214;49.314;6.280;2024-03-06T11:21:58;7.90;99.90
46494;DHT22;53214;49.314;6.280;2024-03-06T11:24:34;8.10;99.90
46494;DHT22;53214;49.314;6.280;2024-03-06T11:27:04;8.10;99.90
46494;DHT22;53214;49.314;6.280;2024-03-06T11:30:11;8.40;99.90
46494;DHT22;53214;49.314;6.280;2024-03-06T11:33:01;8.60;99.90
46494;DHT22;53214;49.314;6.280;2024-03-06T11:35:30;8.40;99.90
46494;DHT22;53214;49.314;6.280;2024-03-06T11:37:59;8.30;99.90
46494;DHT22;53214;49.314;6.280;2024-03-06T11:40:26;8.30;99.90
46494;DHT22;53214;49.314;6.280;2024-03-06T11:42:53;8.40;99.90
46494;DHT22;53214;49.314;6.280;2024-03-06T11:45:20;8.80;99.90
46494;DHT22;53214;49.314;6.280;2024-03-06T11:48:02;9.00;99.90
46494;DHT22;53214;49.314;6.280;2024-03-06T11:50:30;9.10;99.90
46494;DHT22;53214;49.314;6.280;2024-03-06T11:52:59;9.30;99.90
46494;DHT22;53214;49.314;6.280;2024-03-06T11:55:26;9.40;99.90
46494;DHT22;53214;49.314;6.280;2024-03-06T11:57:53;9.50;99.90
46494;DHT22;53214;49.314;6.280;2024-03-06T12:00:24;9.80;99.90
46494;DHT22;53214;49.314;6.280;2024-03-06T12:02:51;10.10;99.90
46494;DHT22;53214;49.314;6.280;2024-03-06T12:05:18;10.50;99.90
46494;DHT22;53214;49.314;6.280;2024-03-06T12:07:49;10.90;99.90
46494;DHT22;53214;49.314;6.280;2024-03-06T12:10:17;11.30;99.90
46494;DHT22;53214;49.314;6.280;2024-03-06T12:12:44;11.40;99.90
46494;DHT22;53214;49.314;6.280;2024-03-06T12:15:15;11.40;99.90
46494;DHT22;53214;49.314;6.280;2024-03-06T12:17:46;11.60;99.90
46494;DHT22;53214;49.314;6.280;2024-03-06T12:20:14;11.80;99.90
46494;DHT22;53214;49.314;6.280;2024-03-06T12:22:49;11.70;99.90
46494;DHT22;53214;49.314;6.280;2024-03-06T12:27:50;11.70;99.90
46494;DHT22;53214;49.314;6.280;2024-03-06T12:30:18;11.90;99.90
46494;DHT22;53214;49.314;6.280;2024-03-06T12:32:59;12.00;99.90
46494;DHT22;53214;49.314;6.280;2024-03-06T12:35:26;12.10;99.90
46494;DHT22;53214;49.314;6.280;2024-03-06T12:37:54;12.30;99.90
46494;DHT22;53214;49.314;6.280;2024-03-06T12:40:21;12.30;99.90
46494;DHT22;53214;49.314;6.280;2024-03-06T12:42:48;12.10;99.90
46494;DHT22;53214;49.314;6.280;2024-03-06T12:45:16;12.00;99.90
46494;DHT22;53214;49.314;6.280;2024-03-06T12:47:47;12.10;99.90
46494;DHT22;53214;49.314;6.280;2024-03-06T12:50:17;12.10;99.90
46494;DHT22;53214;49.314;6.280;2024-03-06T12:52:43;12.00;99.90
46494;DHT22;53214;49.314;6.280;2024-03-06T12:55:12;12.10;99.90
46494;DHT22;53214;49.314;6.280;2024-03-06T12:57:41;12.30;99.90
46494;DHT22;53214;49.314;6.280;2024-03-06T13:00:08;12.60;99.90
46494;DHT22;53214;49.314;6.280;2024-03-06T13:02:43;12.50;99.90
46494;DHT22;53214;49.314;6.280;2024-03-06T13:05:11;12.60;99.90
46494;DHT22;53214;49.314;6.280;2024-03-06T13:07:40;12.80;99.90
46494;DHT22;53214;49.314;6.280;2024-03-06T13:10:09;13.00;99.90
46494;DHT22;53214;49.314;6.280;2024-03-06T13:12:37;13.20;99.90
46494;DHT22;53214;49.314;6.280;2024-03-06T13:15:05;13.20;99.90
46494;DHT22;53214;49.314;6.280;2024-03-06T13:17:34;13.10;99.90
46494;DHT22;53214;49.314;6.280;2024-03-06T13:20:01;12.80;99.90
46494;DHT22;53214;49.314;6.280;2024-03-06T13:22:28;12.50;99.90
46494;DHT22;53214;49.314;6.280;2024-03-06T13:24:56;12.10;99.90
46494;DHT22;53214;49.314;6.280;2024-03-06T13:27:23;11.70;99.90
46494;DHT22;53214;49.314;6.280;2024-03-06T13:29:50;11.50;99.90
46494;DHT22;53214;49.314;6.280;2024-03-06T13:32:17;11.40;99.90
46494;DHT22;53214;49.314;6.280;2024-03-06T13:34:45;11.30;99.90
46494;DHT22;53214;49.314;6.280;2024-03-06T13:37:11;11.50;99.90
46494;DHT22;53214;49.314;6.280;2024-03-06T13:39:38;11.70;99.90
46494;DHT22;53214;49.314;6.280;2024-03-06T13:42:06;12.00;99.90
46494;DHT22;53214;49.314;6.280;2024-03-06T13:44:32;12.30;99.90
46494;DHT22;53214;49.314;6.280;2024-03-06T13:46:59;12.50;99.90
46494;DHT22;53214;49.314;6.280;2024-03-06T13:49:39;12.60;99.90
46494;DHT22;53214;49.314;6.280;2024-03-06T13:52:07;12.70;99.90
46494;DHT22;53214;49.314;6.280;2024-03-06T13:54:40;12.80;99.90
46494;DHT22;53214;49.314;6.280;2024-03-06T13:57:09;12.80;99.90
46494;DHT22;53214;49.314;6.280;2024-03-06T13:59:36;12.90;99.90
46494;DHT22;53214;49.314;6.280;2024-03-06T14:02:04;12.90;99.90
46494;DHT22;53214;49.314;6.280;2024-03-06T14:04:31;13.00;99.90
46494;DHT22;53214;49.314;6.280;2024-03-06T14:06:58;13.00;99.90
46494;DHT22;53214;49.314;6.280;2024-03-06T14:09:26;13.00;99.90
46494;DHT22;53214;49.314;6.280;2024-03-06T14:11:53;13.10;99.90
46494;DHT22;53214;49.314;6.280;2024-03-06T14:14:20;13.20;99.90
46494;DHT22;53214;49.314;6.280;2024-03-06T14:16:47;13.20;99.90
46494;DHT22;53214;49.314;6.280;2024-03-06T14:19:14;12.90;99.90
46494;DHT22;53214;49.314;6.280;2024-03-06T14:21:41;12.60;99.90
46494;DHT22;53214;49.314;6.280;2024-03-06T14:24:08;12.40;99.90
46494;DHT22;53214;49.314;6.280;2024-03-06T14:26:35;12.30;99.90
46494;DHT22;53214;49.314;6.280;2024-03-06T14:29:02;12.30;99.90
46494;DHT22;53214;49.314;6.280;2024-03-06T14:31:32;12.40;99.90
46494;DHT22;53214;49.314;6.280;2024-03-06T14:33:59;12.50;99.90
46494;DHT22;53214;49.314;6.280;2024-03-06T14:36:30;12.50;99.90
46494;DHT22;53214;49.314;6.280;2024-03-06T14:38:57;12.60;99.90
46494;DHT22;53214;49.314;6.280;2024-03-06T14:41:24;12.70;99.90
46494;DHT22;53214;49.314;6.280;2024-03-06T14:43:51;12.70;99.90
46494;DHT22;53214;49.314;6.280;2024-03-06T14:46:17;12.60;99.90
46494;DHT22;53214;49.314;6.280;2024-03-06T14:48:45;12.40;99.90
46494;DHT22;53214;49.314;6.280;2024-03-06T14:51:12;12.40;99.90
46494;DHT22;53214;49.314;6.280;2024-03-06T14:53:39;12.30;99.90
46494;DHT22;53214;49.314;6.280;2024-03-06T14:56:07;12.20;99.90
46494;DHT22;53214;49.314;6.280;2024-03-06T14:58:34;12.20;99.90
46494;DHT22;53214;49.314;6.280;2024-03-06T15:01:00;12.20;99.90
46494;DHT22;53214;49.314;6.280;2024-03-06T15:03:27;12.30;99.90
46494;DHT22;53214;49.314;6.280;2024-03-06T15:05:55;12.40;99.90
46494;DHT22;53214;49.314;6.280;2024-03-06T15:08:22;12.30;99.90
46494;DHT22;53214;49.314;6.280;2024-03-06T15:10:50;12.30;99.90
46494;DHT22;53214;49.314;6.280;2024-03-06T15:13:18;12.30;99.90
46494;DHT22;53214;49.314;6.280;2024-03-06T15:15:45;12.30;99.90
46494;DHT22;53214;49.314;6.280;2024-03-06T15:18:12;12.20;99.90
46494;DHT22;53214;49.314;6.280;2024-03-06T15:20:39;12.20;99.90
46494;DHT22;53214;49.314;6.280;2024-03-06T15:23:06;12.20;99.90
46494;DHT22;53214;49.314;6.280;2024-03-06T15:25:33;12.30;99.90
46494;DHT22;53214;49.314;6.280;2024-03-06T15:28:00;12.30;99.90
46494;DHT22;53214;49.314;6.280;2024-03-06T15:30:27;12.30;99.90
46494;DHT22;53214;49.314;6.280;2024-03-06T15:32:55;12.30;99.90
46494;DHT22;53214;49.314;6.280;2024-03-06T15:35:22;12.30;99.90
46494;DHT22;53214;49.314;6.280;2024-03-06T15:37:49;12.30;99.90
46494;DHT22;53214;49.314;6.280;2024-03-06T15:40:16;12.30;99.90
46494;DHT22;53214;49.314;6.280;2024-03-06T15:42:43;12.30;99.90
46494;DHT22;53214;49.314;6.280;2024-03-06T15:45:11;12.20;99.90
46494;DHT22;53214;49.314;6.280;2024-03-06T15:47:38;12.10;99.90
46494;DHT22;53214;49.314;6.280;2024-03-06T15:50:09;12.00;99.90
46494;DHT22;53214;49.314;6.280;2024-03-06T15:52:40;11.80;99.90
46494;DHT22;53214;49.314;6.280;2024-03-06T15:55:08;11.80;99.90
46494;DHT22;53214;49.314;6.280;2024-03-06T15:57:38;11.70;99.90